sensor_id;sensor_type;location;lat;lon;timestamp;pressure;altitude;pressure_sealevel;temperature;humidity
19210;BME280;9738;51.654;14.238;2023-05-22T00:01:21;100625.13;;;17.48;70.40
19210;BME280;9738;51.654;14.238;2023-05-22T00:03:52;100628.41;;;17.43;70.73
19210;BME280;9738;51.654;14.238;2023-05-22T00:06:19;100625.44;;;17.38;71.51
19210;BME280;9738;51.654;14.238;2023-05-22T00:08:47;100628.91;;;17.32;71.73
19210;BME280;9738;51.654;14.238;2023-05-22T00:11:13;100626.13;;;17.25;71.96
19210;BME280;9738;51.654;14.238;2023-05-22T00:13:38;100631.06;;;17.22;71.90
19210;BME280;9738;51.654;14.238;2023-05-22T00:16:05;100627.47;;;17.15;73.24
19210;BME280;9738;51.654;14.238;2023-05-22T00:18:31;100624.69;;;17.08;73.13
19210;BME280;9738;51.654;14.238;2023-05-22T00:20:57;100633.53;;;17.02;73.24
19210;BME280;9738;51.654;14.238;2023-05-22T00:23:24;100621.81;;;16.95;73.38
19210;BME280;9738;51.654;14.238;2023-05-22T00:25:50;100623.22;;;16.91;73.23
19210;BME280;9738;51.654;14.238;2023-05-22T00:28:16;100623.97;;;16.85;74.08
19210;BME280;9738;51.654;14.238;2023-05-22T00:30:42;100618.31;;;16.80;74.01
19210;BME280;9738;51.654;14.238;2023-05-22T00:33:08;100613.66;;;16.73;74.34
19210;BME280;9738;51.654;14.238;2023-05-22T00:35:34;100611.69;;;16.67;74.53
19210;BME280;9738;51.654;14.238;2023-05-22T00:38:02;100610.72;;;16.60;75.07
19210;BME280;9738;51.654;14.238;2023-05-22T00:40:29;100612.34;;;16.55;75.16
19210;BME280;9738;51.654;14.238;2023-05-22T00:42:55;100612.69;;;16.52;76.07
19210;BME280;9738;51.654;14.238;2023-05-22T00:45:22;100607.84;;;16.47;75.96
19210;BME280;9738;51.654;14.238;2023-05-22T00:47:49;100619.84;;;16.44;76.08
19210;BME280;9738;51.654;14.238;2023-05-22T00:50:15;100616.88;;;16.39;76.28
19210;BME280;9738;51.654;14.238;2023-05-22T00:52:42;100623.47;;;16.37;76.31
19210;BME280;9738;51.654;14.238;2023-05-22T00:55:11;100627.38;;;16.34;76.56
19210;BME280;9738;51.654;14.238;2023-05-22T00:57:38;100624.03;;;16.32;75.97
19210;BME280;9738;51.654;14.238;2023-05-22T01:00:12;100631.47;;;16.30;76.55
19210;BME280;9738;51.654;14.238;2023-05-22T01:02:39;100626.28;;;16.29;76.17
19210;BME280;9738;51.654;14.238;2023-05-22T01:05:08;100630.16;;;16.26;77.20
19210;BME280;9738;51.654;14.238;2023-05-22T01:07:35;100629.69;;;16.23;77.42
19210;BME280;9738;51.654;14.238;2023-05-22T01:10:03;100630.06;;;16.19;77.26
19210;BME280;9738;51.654;14.238;2023-05-22T01:12:54;100628.56;;;16.17;77.11
19210;BME280;9738;51.654;14.238;2023-05-22T01:16:08;100624.56;;;16.13;77.99
19210;BME280;9738;51.654;14.238;2023-05-22T01:18:30;100635.03;;;16.08;78.44
19210;BME280;9738;51.654;14.238;2023-05-22T01:23:48;100626.28;;;15.91;80.18
19210;BME280;9738;51.654;14.238;2023-05-22T01:26:51;100629.00;;;15.83;80.50
19210;BME280;9738;51.654;14.238;2023-05-22T01:29:33;100618.50;;;15.73;81.09
19210;BME280;9738;51.654;14.238;2023-05-22T01:32:07;100618.75;;;15.63;81.57
19210;BME280;9738;51.654;14.238;2023-05-22T01:34:35;100619.59;;;15.56;82.00
19210;BME280;9738;51.654;14.238;2023-05-22T01:37:03;100617.16;;;15.46;82.49
19210;BME280;9738;51.654;14.238;2023-05-22T01:39:30;100608.09;;;15.39;82.81
19210;BME280;9738;51.654;14.238;2023-05-22T01:41:57;100618.94;;;15.31;83.44
19210;BME280;9738;51.654;14.238;2023-05-22T01:44:22;100614.06;;;15.26;84.20
19210;BME280;9738;51.654;14.238;2023-05-22T01:46:49;100614.63;;;15.22;84.70
19210;BME280;9738;51.654;14.238;2023-05-22T01:49:16;100618.03;;;15.16;86.07
19210;BME280;9738;51.654;14.238;2023-05-22T01:51:52;100612.66;;;15.07;86.62
19210;BME280;9738;51.654;14.238;2023-05-22T01:54:44;100608.34;;;14.98;87.28
19210;BME280;9738;51.654;14.238;2023-05-22T01:57:29;100615.91;;;14.95;88.01
19210;BME280;9738;51.654;14.238;2023-05-22T02:00:02;100612.75;;;14.91;89.17
19210;BME280;9738;51.654;14.238;2023-05-22T02:02:35;100617.63;;;14.87;88.58
19210;BME280;9738;51.654;14.238;2023-05-22T02:05:04;100610.94;;;14.83;89.00
19210;BME280;9738;51.654;14.238;2023-05-22T02:07:31;100620.56;;;14.78;89.55
19210;BME280;9738;51.654;14.238;2023-05-22T02:09:59;100621.22;;;14.80;88.96
19210;BME280;9738;51.654;14.238;2023-05-22T02:12:28;100611.97;;;14.82;89.05
19210;BME280;9738;51.654;14.238;2023-05-22T02:14:54;100620.19;;;14.81;89.37
19210;BME280;9738;51.654;14.238;2023-05-22T02:17:20;100616.66;;;14.80;89.36
19210;BME280;9738;51.654;14.238;2023-05-22T02:19:47;100615.50;;;14.75;89.92
19210;BME280;9738;51.654;14.238;2023-05-22T02:22:13;100616.53;;;14.74;89.79
19210;BME280;9738;51.654;14.238;2023-05-22T02:24:40;100606.97;;;14.71;90.36
19210;BME280;9738;51.654;14.238;2023-05-22T02:27:07;100614.53;;;14.68;90.56
19210;BME280;9738;51.654;14.238;2023-05-22T02:29:34;100618.06;;;14.68;90.75
19210;BME280;9738;51.654;14.238;2023-05-22T02:32:00;100614.88;;;14.65;90.88
19210;BME280;9738;51.654;14.238;2023-05-22T02:34:26;100612.53;;;14.62;91.37
19210;BME280;9738;51.654;14.238;2023-05-22T02:36:52;100612.91;;;14.58;91.36
19210;BME280;9738;51.654;14.238;2023-05-22T02:39:18;100600.16;;;14.52;92.47
19210;BME280;9738;51.654;14.238;2023-05-22T02:41:44;100602.66;;;14.46;93.68
19210;BME280;9738;51.654;14.238;2023-05-22T02:44:10;100604.84;;;14.42;94.28
19210;BME280;9738;51.654;14.238;2023-05-22T02:46:36;100613.41;;;14.38;94.55
19210;BME280;9738;51.654;14.238;2023-05-22T02:49:02;100608.56;;;14.33;95.15
19210;BME280;9738;51.654;14.238;2023-05-22T02:51:28;100607.03;;;14.30;95.61
19210;BME280;9738;51.654;14.238;2023-05-22T02:53:54;100603.03;;;14.26;96.39
19210;BME280;9738;51.654;14.238;2023-05-22T02:56:20;100606.22;;;14.22;96.27
19210;BME280;9738;51.654;14.238;2023-05-22T02:58:47;100602.38;;;14.16;98.05
19210;BME280;9738;51.654;14.238;2023-05-22T03:01:12;100601.91;;;14.13;98.16
19210;BME280;9738;51.654;14.238;2023-05-22T03:03:38;100592.81;;;14.05;99.48
19210;BME280;9738;51.654;14.238;2023-05-22T03:06:05;100594.19;;;14.01;100.00
19210;BME280;9738;51.654;14.238;2023-05-22T03:08:30;100596.19;;;13.99;100.00
19210;BME280;9738;51.654;14.238;2023-05-22T03:10:58;100602.56;;;13.98;100.00
19210;BME280;9738;51.654;14.238;2023-05-22T03:13:24;100594.84;;;13.95;100.00
19210;BME280;9738;51.654;14.238;2023-05-22T03:15:50;100605.78;;;13.94;100.00
19210;BME280;9738;51.654;14.238;2023-05-22T03:18:17;100600.72;;;13.91;100.00
19210;BME280;9738;51.654;14.238;2023-05-22T03:20:42;100601.06;;;13.88;100.00
19210;BME280;9738;51.654;14.238;2023-05-22T03:23:10;100600.25;;;13.87;100.00
19210;BME280;9738;51.654;14.238;2023-05-22T03:25:36;100602.94;;;13.87;100.00
19210;BME280;9738;51.654;14.238;2023-05-22T03:28:03;100601.41;;;13.85;100.00
19210;BME280;9738;51.654;14.238;2023-05-22T03:30:28;100603.25;;;13.84;100.00
19210;BME280;9738;51.654;14.238;2023-05-22T03:32:55;100597.22;;;13.82;100.00
19210;BME280;9738;51.654;14.238;2023-05-22T03:35:21;100592.50;;;13.84;100.00
19210;BME280;9738;51.654;14.238;2023-05-22T03:37:47;100591.84;;;13.82;100.00
19210;BME280;9738;51.654;14.238;2023-05-22T03:40:13;100599.72;;;13.84;100.00
19210;BME280;9738;51.654;14.238;2023-05-22T03:42:39;100594.53;;;13.82;100.00
19210;BME280;9738;51.654;14.238;2023-05-22T03:45:05;100601.41;;;13.85;100.00
19210;BME280;9738;51.654;14.238;2023-05-22T03:47:32;100605.75;;;13.86;100.00
19210;BME280;9738;51.654;14.238;2023-05-22T03:49:57;100602.06;;;13.87;100.00
19210;BME280;9738;51.654;14.238;2023-05-22T03:52:24;100600.06;;;13.89;100.00
19210;BME280;9738;51.654;14.238;2023-05-22T03:54:50;100606.59;;;13.86;100.00
19210;BME280;9738;51.654;14.238;2023-05-22T03:57:16;100602.22;;;13.85;100.00
19210;BME280;9738;51.654;14.238;2023-05-22T03:59:44;100596.88;;;13.85;100.00
19210;BME280;9738;51.654;14.238;2023-05-22T04:02:11;100597.88;;;13.84;100.00
19210;BME280;9738;51.654;14.238;2023-05-22T04:04:41;100603.25;;;13.84;100.00
19210;BME280;9738;51.654;14.238;2023-05-22T04:07:11;100598.72;;;13.85;100.00
19210;BME280;9738;51.654;14.238;2023-05-22T04:09:38;100600.38;;;13.86;100.00
19210;BME280;9738;51.654;14.238;2023-05-22T04:12:04;100598.41;;;13.88;100.00
19210;BME280;9738;51.654;14.238;2023-05-22T04:14:31;100601.75;;;13.90;100.00
19210;BME280;9738;51.654;14.238;2023-05-22T04:16:58;100607.09;;;13.90;100.00
19210;BME280;9738;51.654;14.238;2023-05-22T04:19:24;100598.22;;;13.89;100.00
19210;BME280;9738;51.654;14.238;2023-05-22T04:21:53;100603.59;;;13.89;100.00
19210;BME280;9738;51.654;14.238;2023-05-22T04:24:19;100605.44;;;13.89;100.00
19210;BME280;9738;51.654;14.238;2023-05-22T04:26:48;100603.59;;;13.89;100.00
19210;BME280;9738;51.654;14.238;2023-05-22T04:29:14;100596.19;;;13.91;100.00
19210;BME280;9738;51.654;14.238;2023-05-22T04:31:41;100595.03;;;13.94;100.00
19210;BME280;9738;51.654;14.238;2023-05-22T04:34:10;100594.84;;;13.95;100.00
19210;BME280;9738;51.654;14.238;2023-05-22T04:36:38;100594.50;;;13.98;100.00
19210;BME280;9738;51.654;14.238;2023-05-22T04:39:03;100597.69;;;14.02;100.00
19210;BME280;9738;51.654;14.238;2023-05-22T04:41:29;100604.44;;;14.06;100.00
19210;BME280;9738;51.654;14.238;2023-05-22T04:43:55;100598.53;;;14.11;100.00
19210;BME280;9738;51.654;14.238;2023-05-22T04:46:21;100601.53;;;14.16;100.00
19210;BME280;9738;51.654;14.238;2023-05-22T04:48:47;100599.38;;;14.19;100.00
19210;BME280;9738;51.654;14.238;2023-05-22T04:51:14;100602.84;;;14.28;100.00
19210;BME280;9738;51.654;14.238;2023-05-22T04:53:39;100602.00;;;14.36;100.00
19210;BME280;9738;51.654;14.238;2023-05-22T04:56:05;100601.81;;;14.45;100.00
19210;BME280;9738;51.654;14.238;2023-05-22T04:58:32;100603.50;;;14.54;100.00
19210;BME280;9738;51.654;14.238;2023-05-22T05:00:58;100599.94;;;14.62;100.00
19210;BME280;9738;51.654;14.238;2023-05-22T05:03:24;100595.00;;;14.74;100.00
19210;BME280;9738;51.654;14.238;2023-05-22T05:05:53;100596.31;;;14.86;100.00
19210;BME280;9738;51.654;14.238;2023-05-22T05:08:19;100601.63;;;14.94;100.00
19210;BME280;9738;51.654;14.238;2023-05-22T05:10:45;100602.59;;;15.09;100.00
19210;BME280;9738;51.654;14.238;2023-05-22T05:13:11;100602.00;;;15.22;100.00
19210;BME280;9738;51.654;14.238;2023-05-22T05:15:37;100596.88;;;15.35;100.00
19210;BME280;9738;51.654;14.238;2023-05-22T05:18:03;100597.31;;;15.47;100.00
19210;BME280;9738;51.654;14.238;2023-05-22T05:20:29;100592.84;;;15.62;100.00
19210;BME280;9738;51.654;14.238;2023-05-22T05:22:55;100603.94;;;15.82;100.00
19210;BME280;9738;51.654;14.238;2023-05-22T05:25:21;100599.38;;;16.06;100.00
19210;BME280;9738;51.654;14.238;2023-05-22T05:27:47;100595.84;;;16.35;100.00
19210;BME280;9738;51.654;14.238;2023-05-22T05:30:13;100586.59;;;16.67;100.00
19210;BME280;9738;51.654;14.238;2023-05-22T05:32:39;100589.72;;;17.00;100.00
19210;BME280;9738;51.654;14.238;2023-05-22T05:35:06;100588.84;;;17.36;100.00
19210;BME280;9738;51.654;14.238;2023-05-22T05:37:32;100591.69;;;17.70;98.97
19210;BME280;9738;51.654;14.238;2023-05-22T05:39:58;100581.56;;;18.00;95.71
19210;BME280;9738;51.654;14.238;2023-05-22T05:42:24;100585.13;;;18.29;91.84
19210;BME280;9738;51.654;14.238;2023-05-22T05:44:50;100587.75;;;18.57;88.49
19210;BME280;9738;51.654;14.238;2023-05-22T05:47:16;100592.09;;;18.79;85.41
19210;BME280;9738;51.654;14.238;2023-05-22T05:49:42;100586.78;;;19.06;83.85
19210;BME280;9738;51.654;14.238;2023-05-22T05:52:08;100585.41;;;19.36;85.88
19210;BME280;9738;51.654;14.238;2023-05-22T05:54:34;100586.91;;;19.59;83.52
19210;BME280;9738;51.654;14.238;2023-05-22T05:57:00;100583.59;;;19.70;78.30
19210;BME280;9738;51.654;14.238;2023-05-22T05:59:26;100581.94;;;19.69;77.21
19210;BME280;9738;51.654;14.238;2023-05-22T06:01:51;100583.59;;;19.77;76.56
19210;BME280;9738;51.654;14.238;2023-05-22T06:04:18;100591.13;;;19.94;77.31
19210;BME280;9738;51.654;14.238;2023-05-22T06:06:44;100583.19;;;20.00;74.73
19210;BME280;9738;51.654;14.238;2023-05-22T06:09:10;100574.44;;;20.04;76.01
19210;BME280;9738;51.654;14.238;2023-05-22T06:11:36;100584.22;;;20.12;75.80
19210;BME280;9738;51.654;14.238;2023-05-22T06:14:03;100578.16;;;20.30;74.42
19210;BME280;9738;51.654;14.238;2023-05-22T06:16:29;100576.47;;;20.55;74.74
19210;BME280;9738;51.654;14.238;2023-05-22T06:18:57;100575.09;;;20.84;73.93
19210;BME280;9738;51.654;14.238;2023-05-22T06:21:23;100573.25;;;21.16;70.54
19210;BME280;9738;51.654;14.238;2023-05-22T06:23:49;100567.31;;;21.39;68.32
19210;BME280;9738;51.654;14.238;2023-05-22T06:26:16;100571.16;;;21.56;67.53
19210;BME280;9738;51.654;14.238;2023-05-22T06:28:43;100573.69;;;21.83;67.48
19210;BME280;9738;51.654;14.238;2023-05-22T06:31:09;100563.38;;;22.17;67.26
19210;BME280;9738;51.654;14.238;2023-05-22T06:33:35;100570.09;;;22.32;63.50
19210;BME280;9738;51.654;14.238;2023-05-22T06:36:05;100570.13;;;22.51;61.65
19210;BME280;9738;51.654;14.238;2023-05-22T06:38:31;100563.59;;;22.70;63.14
19210;BME280;9738;51.654;14.238;2023-05-22T06:40:58;100573.16;;;22.98;62.20
19210;BME280;9738;51.654;14.238;2023-05-22T06:43:23;100563.66;;;23.18;61.03
19210;BME280;9738;51.654;14.238;2023-05-22T06:45:49;100569.38;;;23.29;60.82
19210;BME280;9738;51.654;14.238;2023-05-22T06:48:16;100567.78;;;23.51;59.51
19210;BME280;9738;51.654;14.238;2023-05-22T06:50:41;100580.44;;;23.76;60.57
19210;BME280;9738;51.654;14.238;2023-05-22T06:53:07;100569.75;;;23.97;57.03
19210;BME280;9738;51.654;14.238;2023-05-22T06:55:33;100566.34;;;24.02;56.16
19210;BME280;9738;51.654;14.238;2023-05-22T06:57:59;100573.91;;;24.23;57.29
19210;BME280;9738;51.654;14.238;2023-05-22T07:00:25;100570.38;;;24.58;59.35
19210;BME280;9738;51.654;14.238;2023-05-22T07:02:51;100565.59;;;24.65;55.16
19210;BME280;9738;51.654;14.238;2023-05-22T07:05:17;100562.28;;;24.63;53.68
19210;BME280;9738;51.654;14.238;2023-05-22T07:07:43;100569.19;;;24.54;54.51
19210;BME280;9738;51.654;14.238;2023-05-22T07:10:09;100565.97;;;24.57;55.25
19210;BME280;9738;51.654;14.238;2023-05-22T07:12:35;100559.31;;;24.65;55.27
19210;BME280;9738;51.654;14.238;2023-05-22T07:15:01;100567.94;;;24.73;54.51
19210;BME280;9738;51.654;14.238;2023-05-22T07:17:28;100565.63;;;24.94;54.03
19210;BME280;9738;51.654;14.238;2023-05-22T07:19:53;100565.72;;;24.99;55.59
19210;BME280;9738;51.654;14.238;2023-05-22T07:22:19;100560.09;;;25.17;54.38
19210;BME280;9738;51.654;14.238;2023-05-22T07:24:46;100556.53;;;25.45;54.32
19210;BME280;9738;51.654;14.238;2023-05-22T07:27:12;100555.69;;;25.61;53.74
19210;BME280;9738;51.654;14.238;2023-05-22T07:29:38;100559.34;;;25.67;52.95
19210;BME280;9738;51.654;14.238;2023-05-22T07:32:04;100561.97;;;25.91;53.20
19210;BME280;9738;51.654;14.238;2023-05-22T07:34:30;100561.94;;;26.07;51.20
19210;BME280;9738;51.654;14.238;2023-05-22T07:36:59;100552.13;;;26.28;50.86
19210;BME280;9738;51.654;14.238;2023-05-22T07:39:26;100544.78;;;26.51;52.25
19210;BME280;9738;51.654;14.238;2023-05-22T07:41:52;100540.72;;;26.75;51.06
19210;BME280;9738;51.654;14.238;2023-05-22T07:44:18;100536.38;;;26.79;48.09
19210;BME280;9738;51.654;14.238;2023-05-22T07:46:45;100541.97;;;26.89;50.95
19210;BME280;9738;51.654;14.238;2023-05-22T07:49:10;100541.16;;;27.11;48.05
19210;BME280;9738;51.654;14.238;2023-05-22T07:51:36;100540.41;;;27.20;47.21
19210;BME280;9738;51.654;14.238;2023-05-22T07:54:03;100543.97;;;27.21;47.68
19210;BME280;9738;51.654;14.238;2023-05-22T07:56:28;100547.94;;;27.30;47.70
19210;BME280;9738;51.654;14.238;2023-05-22T07:58:55;100550.41;;;27.32;47.61
19210;BME280;9738;51.654;14.238;2023-05-22T08:01:21;100555.78;;;27.48;47.53
19210;BME280;9738;51.654;14.238;2023-05-22T08:03:47;100550.31;;;27.48;45.45
19210;BME280;9738;51.654;14.238;2023-05-22T08:06:12;100546.47;;;27.50;47.07
19210;BME280;9738;51.654;14.238;2023-05-22T08:08:41;100545.22;;;27.67;47.98
19210;BME280;9738;51.654;14.238;2023-05-22T08:11:07;100548.69;;;27.85;47.09
19210;BME280;9738;51.654;14.238;2023-05-22T08:13:32;100540.59;;;28.00;45.94
19210;BME280;9738;51.654;14.238;2023-05-22T08:15:59;100541.50;;;28.16;45.90
19210;BME280;9738;51.654;14.238;2023-05-22T08:18:25;100534.31;;;28.10;41.45
19210;BME280;9738;51.654;14.238;2023-05-22T08:20:52;100545.91;;;28.17;44.00
19210;BME280;9738;51.654;14.238;2023-05-22T08:23:19;100546.19;;;28.20;43.52
19210;BME280;9738;51.654;14.238;2023-05-22T08:25:45;100542.19;;;28.33;42.96
19210;BME280;9738;51.654;14.238;2023-05-22T08:28:11;100544.09;;;28.33;40.59
19210;BME280;9738;51.654;14.238;2023-05-22T08:30:37;100540.53;;;28.32;40.19
19210;BME280;9738;51.654;14.238;2023-05-22T08:33:03;100539.94;;;28.30;43.07
19210;BME280;9738;51.654;14.238;2023-05-22T08:35:29;100531.69;;;28.30;41.28
19210;BME280;9738;51.654;14.238;2023-05-22T08:37:55;100533.94;;;28.33;41.75
19210;BME280;9738;51.654;14.238;2023-05-22T08:40:21;100530.25;;;28.17;41.00
19210;BME280;9738;51.654;14.238;2023-05-22T08:42:48;100521.25;;;27.85;40.22
19210;BME280;9738;51.654;14.238;2023-05-22T08:45:16;100538.91;;;27.67;41.96
19210;BME280;9738;51.654;14.238;2023-05-22T08:47:46;100537.84;;;27.68;42.64
19210;BME280;9738;51.654;14.238;2023-05-22T08:50:18;100533.31;;;27.52;41.19
19210;BME280;9738;51.654;14.238;2023-05-22T08:52:50;100532.16;;;27.47;41.70
19210;BME280;9738;51.654;14.238;2023-05-22T08:55:18;100531.06;;;27.43;41.52
19210;BME280;9738;51.654;14.238;2023-05-22T08:57:44;100526.81;;;27.31;40.89
19210;BME280;9738;51.654;14.238;2023-05-22T09:00:11;100523.03;;;27.37;41.31
19210;BME280;9738;51.654;14.238;2023-05-22T09:02:38;100525.03;;;27.46;41.50
19210;BME280;9738;51.654;14.238;2023-05-22T09:05:05;100514.72;;;27.59;41.07
19210;BME280;9738;51.654;14.238;2023-05-22T09:07:32;100511.84;;;27.76;39.62
19210;BME280;9738;51.654;14.238;2023-05-22T09:09:58;100516.06;;;27.88;38.42
19210;BME280;9738;51.654;14.238;2023-05-22T09:12:24;100505.59;;;27.85;38.50
19210;BME280;9738;51.654;14.238;2023-05-22T09:14:50;100514.06;;;27.46;38.47
19210;BME280;9738;51.654;14.238;2023-05-22T09:17:17;100508.28;;;27.43;39.32
19210;BME280;9738;51.654;14.238;2023-05-22T09:19:45;100508.41;;;27.26;39.33
19210;BME280;9738;51.654;14.238;2023-05-22T09:22:12;100503.94;;;27.20;39.54
19210;BME280;9738;51.654;14.238;2023-05-22T09:24:43;100501.53;;;27.02;38.37
19210;BME280;9738;51.654;14.238;2023-05-22T09:27:10;100509.75;;;27.02;39.50
19210;BME280;9738;51.654;14.238;2023-05-22T09:29:54;100502.72;;;27.06;39.44
19210;BME280;9738;51.654;14.238;2023-05-22T09:32:22;100506.53;;;27.05;38.72
19210;BME280;9738;51.654;14.238;2023-05-22T09:34:49;100503.19;;;27.03;37.93
19210;BME280;9738;51.654;14.238;2023-05-22T09:37:15;100510.03;;;27.27;39.87
19210;BME280;9738;51.654;14.238;2023-05-22T09:39:45;100502.13;;;27.63;41.14
19210;BME280;9738;51.654;14.238;2023-05-22T09:42:15;100507.41;;;28.07;39.89
19210;BME280;9738;51.654;14.238;2023-05-22T09:44:47;100508.44;;;28.38;37.85
19210;BME280;9738;51.654;14.238;2023-05-22T09:47:14;100512.47;;;28.25;36.29
19210;BME280;9738;51.654;14.238;2023-05-22T09:49:41;100509.50;;;28.37;37.78
19210;BME280;9738;51.654;14.238;2023-05-22T09:52:09;100502.75;;;28.65;37.61
19210;BME280;9738;51.654;14.238;2023-05-22T09:54:50;100491.88;;;28.95;36.03
19210;BME280;9738;51.654;14.238;2023-05-22T09:57:24;100485.56;;;29.05;34.71
19210;BME280;9738;51.654;14.238;2023-05-22T09:59:53;100486.41;;;29.26;34.40
19210;BME280;9738;51.654;14.238;2023-05-22T10:02:21;100480.09;;;29.35;35.92
19210;BME280;9738;51.654;14.238;2023-05-22T10:04:48;100494.94;;;29.45;36.23
19210;BME280;9738;51.654;14.238;2023-05-22T10:07:23;100490.84;;;29.27;35.24
19210;BME280;9738;51.654;14.238;2023-05-22T10:10:00;100481.72;;;28.96;35.41
19210;BME280;9738;51.654;14.238;2023-05-22T10:12:27;100485.53;;;28.90;34.90
19210;BME280;9738;51.654;14.238;2023-05-22T10:14:59;100479.72;;;28.76;33.23
19210;BME280;9738;51.654;14.238;2023-05-22T10:17:25;100489.63;;;28.82;35.85
19210;BME280;9738;51.654;14.238;2023-05-22T10:19:53;100484.13;;;28.87;33.67
19210;BME280;9738;51.654;14.238;2023-05-22T10:22:21;100479.44;;;28.77;34.03
19210;BME280;9738;51.654;14.238;2023-05-22T10:24:48;100473.97;;;28.83;34.55
19210;BME280;9738;51.654;14.238;2023-05-22T10:27:14;100477.22;;;28.79;34.45
19210;BME280;9738;51.654;14.238;2023-05-22T10:29:50;100469.53;;;28.81;33.47
19210;BME280;9738;51.654;14.238;2023-05-22T10:32:24;100473.63;;;28.74;34.71
19210;BME280;9738;51.654;14.238;2023-05-22T10:37:34;100461.56;;;28.70;35.89
19210;BME280;9738;51.654;14.238;2023-05-22T10:40:07;100462.69;;;28.89;33.98
19210;BME280;9738;51.654;14.238;2023-05-22T10:42:36;100462.47;;;29.16;34.28
19210;BME280;9738;51.654;14.238;2023-05-22T10:45:05;100451.22;;;29.33;34.10
19210;BME280;9738;51.654;14.238;2023-05-22T10:47:32;100447.38;;;29.54;34.89
19210;BME280;9738;51.654;14.238;2023-05-22T10:50:03;100452.84;;;29.80;33.45
19210;BME280;9738;51.654;14.238;2023-05-22T10:52:30;100448.16;;;29.85;32.89
19210;BME280;9738;51.654;14.238;2023-05-22T10:54:58;100449.50;;;29.83;32.74
19210;BME280;9738;51.654;14.238;2023-05-22T10:57:24;100444.28;;;29.86;31.17
19210;BME280;9738;51.654;14.238;2023-05-22T11:00:05;100436.25;;;30.00;33.22
19210;BME280;9738;51.654;14.238;2023-05-22T11:02:37;100439.28;;;29.99;32.57
19210;BME280;9738;51.654;14.238;2023-05-22T11:08:09;100438.69;;;30.22;31.11
19210;BME280;9738;51.654;14.238;2023-05-22T11:10:52;100440.84;;;30.35;31.40
19210;BME280;9738;51.654;14.238;2023-05-22T11:13:18;100435.88;;;30.37;30.56
19210;BME280;9738;51.654;14.238;2023-05-22T11:15:44;100443.22;;;30.52;30.20
19210;BME280;9738;51.654;14.238;2023-05-22T11:18:10;100442.59;;;30.65;30.48
19210;BME280;9738;51.654;14.238;2023-05-22T11:20:38;100437.06;;;30.76;29.64
19210;BME280;9738;51.654;14.238;2023-05-22T11:23:06;100432.53;;;30.90;27.85
19210;BME280;9738;51.654;14.238;2023-05-22T11:25:33;100430.63;;;30.85;28.78
19210;BME280;9738;51.654;14.238;2023-05-22T11:28:02;100431.22;;;30.82;28.80
19210;BME280;9738;51.654;14.238;2023-05-22T11:30:29;100433.13;;;30.87;28.45
19210;BME280;9738;51.654;14.238;2023-05-22T11:32:57;100435.31;;;30.90;27.80
19210;BME280;9738;51.654;14.238;2023-05-22T11:35:23;100437.25;;;30.89;27.32
19210;BME280;9738;51.654;14.238;2023-05-22T11:37:51;100427.56;;;30.92;26.90
19210;BME280;9738;51.654;14.238;2023-05-22T11:40:18;100432.38;;;30.76;25.34
19210;BME280;9738;51.654;14.238;2023-05-22T11:42:46;100428.81;;;30.71;27.30
19210;BME280;9738;51.654;14.238;2023-05-22T11:45:13;100420.84;;;30.69;27.09
19210;BME280;9738;51.654;14.238;2023-05-22T11:47:39;100402.66;;;30.63;28.74
19210;BME280;9738;51.654;14.238;2023-05-22T11:50:08;100408.22;;;30.53;29.84
19210;BME280;9738;51.654;14.238;2023-05-22T11:52:36;100413.31;;;30.30;30.62
19210;BME280;9738;51.654;14.238;2023-05-22T11:55:03;100411.63;;;30.34;30.61
19210;BME280;9738;51.654;14.238;2023-05-22T11:57:30;100408.03;;;30.34;29.11
19210;BME280;9738;51.654;14.238;2023-05-22T11:59:57;100410.56;;;30.25;29.99
19210;BME280;9738;51.654;14.238;2023-05-22T12:02:23;100404.19;;;30.35;29.46
19210;BME280;9738;51.654;14.238;2023-05-22T12:04:55;100405.63;;;30.22;29.00
19210;BME280;9738;51.654;14.238;2023-05-22T12:07:23;100408.19;;;29.93;28.27
19210;BME280;9738;51.654;14.238;2023-05-22T12:09:50;100408.81;;;29.70;28.82
19210;BME280;9738;51.654;14.238;2023-05-22T12:12:16;100398.91;;;29.48;29.27
19210;BME280;9738;51.654;14.238;2023-05-22T12:14:44;100398.38;;;29.26;29.06
19210;BME280;9738;51.654;14.238;2023-05-22T12:17:15;100400.84;;;29.07;30.54
19210;BME280;9738;51.654;14.238;2023-05-22T12:19:42;100392.84;;;28.85;30.62
19210;BME280;9738;51.654;14.238;2023-05-22T12:22:09;100394.72;;;28.54;30.66
19210;BME280;9738;51.654;14.238;2023-05-22T12:24:43;100395.22;;;28.36;31.16
19210;BME280;9738;51.654;14.238;2023-05-22T12:27:13;100394.06;;;28.21;31.29
19210;BME280;9738;51.654;14.238;2023-05-22T12:29:40;100398.66;;;28.11;31.26
19210;BME280;9738;51.654;14.238;2023-05-22T12:32:08;100393.09;;;27.90;31.08
19210;BME280;9738;51.654;14.238;2023-05-22T12:34:45;100390.03;;;27.82;31.40
19210;BME280;9738;51.654;14.238;2023-05-22T12:37:21;100391.97;;;27.81;32.03
19210;BME280;9738;51.654;14.238;2023-05-22T12:42:20;100387.78;;;27.73;33.99
19210;BME280;9738;51.654;14.238;2023-05-22T12:44:45;100387.78;;;27.73;34.50
19210;BME280;9738;51.654;14.238;2023-05-22T12:47:12;100388.63;;;27.74;33.01
19210;BME280;9738;51.654;14.238;2023-05-22T12:49:37;100386.41;;;27.71;34.12
19210;BME280;9738;51.654;14.238;2023-05-22T12:52:03;100376.16;;;27.56;32.57
19210;BME280;9738;51.654;14.238;2023-05-22T12:54:29;100385.63;;;27.38;32.89
19210;BME280;9738;51.654;14.238;2023-05-22T12:56:55;100381.69;;;27.24;33.21
19210;BME280;9738;51.654;14.238;2023-05-22T12:59:21;100389.31;;;27.17;35.47
19210;BME280;9738;51.654;14.238;2023-05-22T13:01:47;100387.41;;;27.23;34.92